sensor_id;sensor_type;location;lat;lon;timestamp;temperature;humidity
21770;DHT22;11046;49.558;8.674;2023-01-19T00:00:35;-1.70;96.50
21770;DHT22;11046;49.558;8.674;2023-01-19T00:03:36;-1.70;96.60
21770;DHT22;11046;49.558;8.674;2023-01-19T00:06:39;-1.70;96.70
21770;DHT22;11046;49.558;8.674;2023-01-19T00:09:43;-1.60;96.70
21770;DHT22;11046;49.558;8.674;2023-01-19T00:12:44;-1.60;96.80
21770;DHT22;11046;49.558;8.674;2023-01-19T00:15:45;-1.60;96.80
21770;DHT22;11046;49.558;8.674;2023-01-19T00:18:50;-1.60;96.90
21770;DHT22;11046;49.558;8.674;2023-01-19T00:21:51;-1.60;96.80
21770;DHT22;11046;49.558;8.674;2023-01-19T00:24:51;-1.60;96.80
21770;DHT22;11046;49.558;8.674;2023-01-19T00:27:52;-1.60;96.80
21770;DHT22;11046;49.558;8.674;2023-01-19T00:30:56;-1.50;96.80
21770;DHT22;11046;49.558;8.674;2023-01-19T00:33:57;-1.50;96.70
21770;DHT22;11046;49.558;8.674;2023-01-19T00:37:00;-1.50;96.60
21770;DHT22;11046;49.558;8.674;2023-01-19T00:40:05;-1.50;96.70
21770;DHT22;11046;49.558;8.674;2023-01-19T00:43:09;-1.60;96.80
21770;DHT22;11046;49.558;8.674;2023-01-19T00:46:10;-1.60;96.80
21770;DHT22;11046;49.558;8.674;2023-01-19T00:49:13;-1.60;96.90
21770;DHT22;11046;49.558;8.674;2023-01-19T00:52:14;-1.60;96.90
21770;DHT22;11046;49.558;8.674;2023-01-19T00:55:15;-1.70;97.00
21770;DHT22;11046;49.558;8.674;2023-01-19T00:58:16;-1.60;97.00
21770;DHT22;11046;49.558;8.674;2023-01-19T01:01:22;-1.50;97.00
21770;DHT22;11046;49.558;8.674;2023-01-19T01:04:22;-1.60;96.90
21770;DHT22;11046;49.558;8.674;2023-01-19T01:07:36;-1.50;97.00
21770;DHT22;11046;49.558;8.674;2023-01-19T01:10:40;-1.60;97.00
21770;DHT22;11046;49.558;8.674;2023-01-19T01:13:41;-1.60;97.10
21770;DHT22;11046;49.558;8.674;2023-01-19T01:16:42;-1.60;97.20
21770;DHT22;11046;49.558;8.674;2023-01-19T01:19:42;-1.50;97.50
21770;DHT22;11046;49.558;8.674;2023-01-19T01:22:49;-1.50;97.60
21770;DHT22;11046;49.558;8.674;2023-01-19T01:25:57;-1.30;97.60
21770;DHT22;11046;49.558;8.674;2023-01-19T01:28:58;-1.20;97.60
21770;DHT22;11046;49.558;8.674;2023-01-19T01:31:58;-1.20;97.50
21770;DHT22;11046;49.558;8.674;2023-01-19T01:34:59;-1.10;97.50
21770;DHT22;11046;49.558;8.674;2023-01-19T01:38:03;-1.00;97.60
21770;DHT22;11046;49.558;8.674;2023-01-19T01:41:04;-0.90;97.60
21770;DHT22;11046;49.558;8.674;2023-01-19T01:47:53;-0.80;97.80
21770;DHT22;11046;49.558;8.674;2023-01-19T01:51:13;-0.70;97.70
21770;DHT22;11046;49.558;8.674;2023-01-19T01:54:29;-0.70;97.80
21770;DHT22;11046;49.558;8.674;2023-01-19T01:57:30;-0.70;97.80
21770;DHT22;11046;49.558;8.674;2023-01-19T02:00:35;-0.70;97.70
21770;DHT22;11046;49.558;8.674;2023-01-19T02:03:55;-0.60;97.90
21770;DHT22;11046;49.558;8.674;2023-01-19T02:06:57;-0.60;97.90
21770;DHT22;11046;49.558;8.674;2023-01-19T02:10:19;-0.50;97.90
21770;DHT22;11046;49.558;8.674;2023-01-19T02:13:40;-0.50;97.90
21770;DHT22;11046;49.558;8.674;2023-01-19T02:16:49;-0.50;98.00
21770;DHT22;11046;49.558;8.674;2023-01-19T02:19:50;-0.50;98.10
21770;DHT22;11046;49.558;8.674;2023-01-19T02:22:51;-0.40;98.10
21770;DHT22;11046;49.558;8.674;2023-01-19T02:25:52;-0.40;98.10
21770;DHT22;11046;49.558;8.674;2023-01-19T02:28:58;-0.40;98.10
21770;DHT22;11046;49.558;8.674;2023-01-19T02:31:59;-0.30;98.10
21770;DHT22;11046;49.558;8.674;2023-01-19T02:35:03;-0.30;98.10
21770;DHT22;11046;49.558;8.674;2023-01-19T02:38:05;-0.20;98.00
21770;DHT22;11046;49.558;8.674;2023-01-19T02:41:11;-0.20;98.10
21770;DHT22;11046;49.558;8.674;2023-01-19T02:44:13;-0.20;98.10
21770;DHT22;11046;49.558;8.674;2023-01-19T02:47:15;-0.20;98.10
21770;DHT22;11046;49.558;8.674;2023-01-19T02:53:39;-0.10;98.20
21770;DHT22;11046;49.558;8.674;2023-01-19T03:06:52;-0.20;98.30
21770;DHT22;11046;49.558;8.674;2023-01-19T03:10:10;-0.20;98.20
21770;DHT22;11046;49.558;8.674;2023-01-19T03:13:21;-0.10;98.20
21770;DHT22;11046;49.558;8.674;2023-01-19T03:16:33;-0.10;98.20
21770;DHT22;11046;49.558;8.674;2023-01-19T03:19:40;-0.20;98.30
21770;DHT22;11046;49.558;8.674;2023-01-19T03:22:42;-0.30;98.40
21770;DHT22;11046;49.558;8.674;2023-01-19T03:25:46;-0.20;98.40
21770;DHT22;11046;49.558;8.674;2023-01-19T03:28:48;-0.20;98.40
21770;DHT22;11046;49.558;8.674;2023-01-19T03:31:58;-0.20;98.50
21770;DHT22;11046;49.558;8.674;2023-01-19T03:35:04;-0.20;98.50
21770;DHT22;11046;49.558;8.674;2023-01-19T03:38:13;-0.10;98.50
21770;DHT22;11046;49.558;8.674;2023-01-19T03:41:16;-0.10;98.40
21770;DHT22;11046;49.558;8.674;2023-01-19T03:44:18;-0.10;98.60
21770;DHT22;11046;49.558;8.674;2023-01-19T03:47:19;-0.10;98.60
21770;DHT22;11046;49.558;8.674;2023-01-19T03:50:28;-0.10;98.60
21770;DHT22;11046;49.558;8.674;2023-01-19T03:53:29;0.00;98.60
21770;DHT22;11046;49.558;8.674;2023-01-19T03:56:33;0.00;98.50
21770;DHT22;11046;49.558;8.674;2023-01-19T03:59:36;0.00;98.50
21770;DHT22;11046;49.558;8.674;2023-01-19T04:02:37;0.00;98.50
21770;DHT22;11046;49.558;8.674;2023-01-19T04:05:38;0.00;98.60
21770;DHT22;11046;49.558;8.674;2023-01-19T04:08:39;0.00;98.60
21770;DHT22;11046;49.558;8.674;2023-01-19T04:11:40;0.00;98.60
21770;DHT22;11046;49.558;8.674;2023-01-19T04:14:41;0.10;98.60
21770;DHT22;11046;49.558;8.674;2023-01-19T04:17:44;0.10;98.60
21770;DHT22;11046;49.558;8.674;2023-01-19T04:20:45;0.10;98.60
21770;DHT22;11046;49.558;8.674;2023-01-19T04:23:45;0.10;98.50
21770;DHT22;11046;49.558;8.674;2023-01-19T04:26:46;0.00;98.60
21770;DHT22;11046;49.558;8.674;2023-01-19T04:29:47;0.00;98.60
21770;DHT22;11046;49.558;8.674;2023-01-19T04:32:50;0.00;98.60
21770;DHT22;11046;49.558;8.674;2023-01-19T04:36:01;0.00;98.60
21770;DHT22;11046;49.558;8.674;2023-01-19T04:39:03;0.00;98.50
21770;DHT22;11046;49.558;8.674;2023-01-19T04:42:07;0.00;98.40
21770;DHT22;11046;49.558;8.674;2023-01-19T04:45:12;0.00;98.40
21770;DHT22;11046;49.558;8.674;2023-01-19T04:48:16;-0.10;98.40
21770;DHT22;11046;49.558;8.674;2023-01-19T04:51:18;-0.10;98.50
21770;DHT22;11046;49.558;8.674;2023-01-19T04:54:27;-0.20;98.50
21770;DHT22;11046;49.558;8.674;2023-01-19T04:57:30;-0.20;98.60
21770;DHT22;11046;49.558;8.674;2023-01-19T05:00:31;-0.20;98.60
21770;DHT22;11046;49.558;8.674;2023-01-19T05:03:32;-0.30;98.60
21770;DHT22;11046;49.558;8.674;2023-01-19T05:06:33;-0.20;98.70
21770;DHT22;11046;49.558;8.674;2023-01-19T05:09:37;-0.30;98.80
21770;DHT22;11046;49.558;8.674;2023-01-19T05:12:38;-0.20;98.80
21770;DHT22;11046;49.558;8.674;2023-01-19T05:15:39;-0.20;98.80
21770;DHT22;11046;49.558;8.674;2023-01-19T05:18:39;-0.20;98.80
21770;DHT22;11046;49.558;8.674;2023-01-19T05:21:40;-0.20;98.90
21770;DHT22;11046;49.558;8.674;2023-01-19T05:24:43;-0.30;98.90
21770;DHT22;11046;49.558;8.674;2023-01-19T05:27:44;-0.30;98.90
21770;DHT22;11046;49.558;8.674;2023-01-19T05:30:45;-0.30;99.10
21770;DHT22;11046;49.558;8.674;2023-01-19T05:33:49;-0.30;99.00
21770;DHT22;11046;49.558;8.674;2023-01-19T05:36:50;-0.30;99.20
21770;DHT22;11046;49.558;8.674;2023-01-19T05:39:54;-0.30;99.10
21770;DHT22;11046;49.558;8.674;2023-01-19T05:42:55;-0.30;99.20
21770;DHT22;11046;49.558;8.674;2023-01-19T05:46:00;-0.30;99.20
21770;DHT22;11046;49.558;8.674;2023-01-19T05:49:03;-0.40;99.30
21770;DHT22;11046;49.558;8.674;2023-01-19T05:52:04;-0.30;99.40
21770;DHT22;11046;49.558;8.674;2023-01-19T05:55:09;-0.40;99.40
21770;DHT22;11046;49.558;8.674;2023-01-19T05:58:13;-0.30;99.30
21770;DHT22;11046;49.558;8.674;2023-01-19T06:01:14;-0.30;99.20
21770;DHT22;11046;49.558;8.674;2023-01-19T06:04:18;-0.30;99.20
21770;DHT22;11046;49.558;8.674;2023-01-19T06:07:27;-0.40;99.30
21770;DHT22;11046;49.558;8.674;2023-01-19T06:10:27;-0.40;99.40
21770;DHT22;11046;49.558;8.674;2023-01-19T06:13:28;-0.30;99.40
21770;DHT22;11046;49.558;8.674;2023-01-19T06:16:29;-0.40;99.40
21770;DHT22;11046;49.558;8.674;2023-01-19T06:19:31;-0.40;99.30
21770;DHT22;11046;49.558;8.674;2023-01-19T06:22:32;-0.40;99.30
21770;DHT22;11046;49.558;8.674;2023-01-19T06:25:33;-0.40;99.40
21770;DHT22;11046;49.558;8.674;2023-01-19T06:28:34;-0.40;99.40
21770;DHT22;11046;49.558;8.674;2023-01-19T06:31:34;-0.40;99.40
21770;DHT22;11046;49.558;8.674;2023-01-19T06:34:35;-0.40;99.40
21770;DHT22;11046;49.558;8.674;2023-01-19T06:37:36;-0.40;99.40
21770;DHT22;11046;49.558;8.674;2023-01-19T06:40:36;-0.40;99.40
21770;DHT22;11046;49.558;8.674;2023-01-19T06:43:37;-0.40;99.40
21770;DHT22;11046;49.558;8.674;2023-01-19T06:46:38;-0.40;99.40
21770;DHT22;11046;49.558;8.674;2023-01-19T06:49:39;-0.40;99.60
21770;DHT22;11046;49.558;8.674;2023-01-19T06:52:39;-0.30;99.90
21770;DHT22;11046;49.558;8.674;2023-01-19T06:55:44;-0.30;99.90
21770;DHT22;11046;49.558;8.674;2023-01-19T06:58:48;-0.30;99.90
21770;DHT22;11046;49.558;8.674;2023-01-19T07:01:49;-0.20;99.90
21770;DHT22;11046;49.558;8.674;2023-01-19T07:04:53;-0.20;99.90
21770;DHT22;11046;49.558;8.674;2023-01-19T07:07:55;-0.10;99.90
21770;DHT22;11046;49.558;8.674;2023-01-19T07:11:00;-0.20;99.90
21770;DHT22;11046;49.558;8.674;2023-01-19T07:14:01;-0.10;99.90
21770;DHT22;11046;49.558;8.674;2023-01-19T07:17:03;0.00;99.90
21770;DHT22;11046;49.558;8.674;2023-01-19T07:20:04;0.00;99.90
21770;DHT22;11046;49.558;8.674;2023-01-19T07:23:05;0.00;99.90
21770;DHT22;11046;49.558;8.674;2023-01-19T07:26:05;0.00;99.90
21770;DHT22;11046;49.558;8.674;2023-01-19T07:29:06;0.00;99.90
21770;DHT22;11046;49.558;8.674;2023-01-19T07:32:07;0.10;99.90
21770;DHT22;11046;49.558;8.674;2023-01-19T07:35:08;0.10;99.90
21770;DHT22;11046;49.558;8.674;2023-01-19T07:38:12;0.20;99.90
21770;DHT22;11046;49.558;8.674;2023-01-19T07:41:12;0.20;99.90
21770;DHT22;11046;49.558;8.674;2023-01-19T07:44:13;0.20;99.90
21770;DHT22;11046;49.558;8.674;2023-01-19T07:47:14;0.30;99.90
21770;DHT22;11046;49.558;8.674;2023-01-19T07:50:16;0.30;99.80
21770;DHT22;11046;49.558;8.674;2023-01-19T07:53:17;0.30;99.80
21770;DHT22;11046;49.558;8.674;2023-01-19T07:56:18;0.30;99.80
21770;DHT22;11046;49.558;8.674;2023-01-19T07:59:19;0.30;99.90
21770;DHT22;11046;49.558;8.674;2023-01-19T08:02:19;0.30;99.90
21770;DHT22;11046;49.558;8.674;2023-01-19T08:05:20;0.30;99.90
21770;DHT22;11046;49.558;8.674;2023-01-19T08:08:21;0.30;99.80
21770;DHT22;11046;49.558;8.674;2023-01-19T08:11:21;0.40;99.80
21770;DHT22;11046;49.558;8.674;2023-01-19T08:14:22;0.30;99.80
21770;DHT22;11046;49.558;8.674;2023-01-19T08:17:22;0.30;99.90
21770;DHT22;11046;49.558;8.674;2023-01-19T08:20:23;0.20;99.90
21770;DHT22;11046;49.558;8.674;2023-01-19T08:23:25;0.30;99.90
21770;DHT22;11046;49.558;8.674;2023-01-19T08:26:30;0.30;99.90
21770;DHT22;11046;49.558;8.674;2023-01-19T08:29:31;0.40;99.90
21770;DHT22;11046;49.558;8.674;2023-01-19T08:32:33;0.40;99.90
21770;DHT22;11046;49.558;8.674;2023-01-19T08:35:35;0.40;99.90
21770;DHT22;11046;49.558;8.674;2023-01-19T08:38:36;0.50;99.90
21770;DHT22;11046;49.558;8.674;2023-01-19T08:41:40;0.50;99.90
21770;DHT22;11046;49.558;8.674;2023-01-19T08:44:41;0.60;99.80
21770;DHT22;11046;49.558;8.674;2023-01-19T08:47:41;0.70;99.70
21770;DHT22;11046;49.558;8.674;2023-01-19T08:50:45;0.60;99.80
21770;DHT22;11046;49.558;8.674;2023-01-19T08:53:47;0.70;99.90
21770;DHT22;11046;49.558;8.674;2023-01-19T08:56:47;0.70;99.80
21770;DHT22;11046;49.558;8.674;2023-01-19T08:59:48;0.80;99.80
21770;DHT22;11046;49.558;8.674;2023-01-19T09:02:48;0.90;99.80
21770;DHT22;11046;49.558;8.674;2023-01-19T09:05:51;0.90;99.70
21770;DHT22;11046;49.558;8.674;2023-01-19T09:08:52;1.00;99.70
21770;DHT22;11046;49.558;8.674;2023-01-19T09:11:55;1.10;99.70
21770;DHT22;11046;49.558;8.674;2023-01-19T09:14:56;1.10;99.60
21770;DHT22;11046;49.558;8.674;2023-01-19T09:18:00;1.20;99.60
21770;DHT22;11046;49.558;8.674;2023-01-19T09:21:04;1.30;99.60
21770;DHT22;11046;49.558;8.674;2023-01-19T09:24:06;1.30;99.50
21770;DHT22;11046;49.558;8.674;2023-01-19T09:27:11;1.20;99.50
21770;DHT22;11046;49.558;8.674;2023-01-19T09:30:15;1.30;99.60
21770;DHT22;11046;49.558;8.674;2023-01-19T09:33:17;1.30;99.50
21770;DHT22;11046;49.558;8.674;2023-01-19T09:36:19;1.30;99.50
21770;DHT22;11046;49.558;8.674;2023-01-19T09:39:22;1.30;99.60
21770;DHT22;11046;49.558;8.674;2023-01-19T09:48:55;1.30;99.50
21770;DHT22;11046;49.558;8.674;2023-01-19T09:52:01;1.30;99.50
21770;DHT22;11046;49.558;8.674;2023-01-19T09:55:02;1.20;99.40
21770;DHT22;11046;49.558;8.674;2023-01-19T09:58:15;1.20;99.50
21770;DHT22;11046;49.558;8.674;2023-01-19T10:10:56;2.00;99.30
21770;DHT22;11046;49.558;8.674;2023-01-19T10:13:57;2.30;99.20
21770;DHT22;11046;49.558;8.674;2023-01-19T10:20:34;2.80;98.90
21770;DHT22;11046;49.558;8.674;2023-01-19T10:24:10;3.00;98.90
21770;DHT22;11046;49.558;8.674;2023-01-19T10:27:16;3.10;98.60
21770;DHT22;11046;49.558;8.674;2023-01-19T10:30:26;3.00;98.60
21770;DHT22;11046;49.558;8.674;2023-01-19T10:33:32;2.90;98.60
21770;DHT22;11046;49.558;8.674;2023-01-19T10:36:36;2.80;98.60
21770;DHT22;11046;49.558;8.674;2023-01-19T10:39:39;2.80;98.60
21770;DHT22;11046;49.558;8.674;2023-01-19T10:42:41;2.90;98.60
21770;DHT22;11046;49.558;8.674;2023-01-19T10:45:41;2.80;98.40
21770;DHT22;11046;49.558;8.674;2023-01-19T10:48:42;2.70;98.50
21770;DHT22;11046;49.558;8.674;2023-01-19T10:51:46;2.60;98.50
21770;DHT22;11046;49.558;8.674;2023-01-19T10:54:50;2.70;98.50
21770;DHT22;11046;49.558;8.674;2023-01-19T10:57:51;2.70;98.40
21770;DHT22;11046;49.558;8.674;2023-01-19T11:00:52;2.70;98.30
21770;DHT22;11046;49.558;8.674;2023-01-19T11:03:53;2.70;98.30
21770;DHT22;11046;49.558;8.674;2023-01-19T11:07:16;2.70;98.40
21770;DHT22;11046;49.558;8.674;2023-01-19T11:10:20;2.70;98.30
21770;DHT22;11046;49.558;8.674;2023-01-19T11:13:22;2.60;98.20
21770;DHT22;11046;49.558;8.674;2023-01-19T11:16:28;2.60;98.20
21770;DHT22;11046;49.558;8.674;2023-01-19T11:19:31;2.50;98.20
21770;DHT22;11046;49.558;8.674;2023-01-19T11:22:32;2.50;98.40
21770;DHT22;11046;49.558;8.674;2023-01-19T11:25:34;2.60;98.50
21770;DHT22;11046;49.558;8.674;2023-01-19T11:28:38;2.70;98.30
21770;DHT22;11046;49.558;8.674;2023-01-19T11:31:40;2.70;98.30
21770;DHT22;11046;49.558;8.674;2023-01-19T11:34:40;2.80;98.20
21770;DHT22;11046;49.558;8.674;2023-01-19T11:37:41;2.90;98.10
21770;DHT22;11046;49.558;8.674;2023-01-19T11:40:53;2.90;98.00
21770;DHT22;11046;49.558;8.674;2023-01-19T11:43:57;2.90;98.10
21770;DHT22;11046;49.558;8.674;2023-01-19T11:47:13;2.90;98.10
21770;DHT22;11046;49.558;8.674;2023-01-19T11:50:34;3.00;98.20
21770;DHT22;11046;49.558;8.674;2023-01-19T11:53:36;3.20;98.10
21770;DHT22;11046;49.558;8.674;2023-01-19T11:56:37;3.20;98.00
21770;DHT22;11046;49.558;8.674;2023-01-19T11:59:38;3.20;97.90
21770;DHT22;11046;49.558;8.674;2023-01-19T12:02:43;3.10;97.70
21770;DHT22;11046;49.558;8.674;2023-01-19T12:05:48;3.00;97.60
21770;DHT22;11046;49.558;8.674;2023-01-19T12:09:00;2.90;97.70
21770;DHT22;11046;49.558;8.674;2023-01-19T12:12:06;2.80;97.80
21770;DHT22;11046;49.558;8.674;2023-01-19T12:15:09;2.80;97.80
21770;DHT22;11046;49.558;8.674;2023-01-19T12:18:27;2.70;97.70
21770;DHT22;11046;49.558;8.674;2023-01-19T12:21:28;2.70;97.80
21770;DHT22;11046;49.558;8.674;2023-01-19T12:24:38;2.70;97.90
21770;DHT22;11046;49.558;8.674;2023-01-19T12:27:45;2.60;97.80
21770;DHT22;11046;49.558;8.674;2023-01-19T12:30:48;2.60;97.80
21770;DHT22;11046;49.558;8.674;2023-01-19T12:33:50;2.50;97.80
21770;DHT22;11046;49.558;8.674;2023-01-19T12:36:51;2.50;97.80
21770;DHT22;11046;49.558;8.674;2023-01-19T12:40:01;2.50;97.80
21770;DHT22;11046;49.558;8.674;2023-01-19T12:43:04;2.50;97.90
21770;DHT22;11046;49.558;8.674;2023-01-19T12:46:38;2.50;97.90
21770;DHT22;11046;49.558;8.674;2023-01-19T12:49:54;2.50;97.90
21770;DHT22;11046;49.558;8.674;2023-01-19T12:53:00;2.50;97.90
21770;DHT22;11046;49.558;8.674;2023-01-19T12:56:05;2.60;97.90
21770;DHT22;11046;49.558;8.674;2023-01-19T12:59:23;2.70;97.90
21770;DHT22;11046;49.558;8.674;2023-01-19T13:03:01;2.70;97.90
21770;DHT22;11046;49.558;8.674;2023-01-19T13:05:55;2.80;97.70
21770;DHT22;11046;49.558;8.674;2023-01-19T13:08:59;2.80;97.70
21770;DHT22;11046;49.558;8.674;2023-01-19T13:15:33;2.90;97.70
21770;DHT22;11046;49.558;8.674;2023-01-19T13:18:39;3.00;97.70
21770;DHT22;11046;49.558;8.674;2023-01-19T13:21:43;3.00;97.60
21770;DHT22;11046;49.558;8.674;2023-01-19T13:25:09;3.00;97.60
21770;DHT22;11046;49.558;8.674;2023-01-19T13:28:12;3.10;97.50
21770;DHT22;11046;49.558;8.674;2023-01-19T13:31:15;3.10;97.50
21770;DHT22;11046;49.558;8.674;2023-01-19T13:34:23;3.10;97.50
21770;DHT22;11046;49.558;8.674;2023-01-19T13:37:37;3.10;97.40
21770;DHT22;11046;49.558;8.674;2023-01-19T13:40:41;3.10;97.40
21770;DHT22;11046;49.558;8.674;2023-01-19T13:43:43;3.00;97.50
21770;DHT22;11046;49.558;8.674;2023-01-19T13:46:45;3.10;97.50
21770;DHT22;11046;49.558;8.674;2023-01-19T13:49:47;3.00;97.40
21770;DHT22;11046;49.558;8.674;2023-01-19T13:52:49;3.00;97.30
21770;DHT22;11046;49.558;8.674;2023-01-19T13:56:19;2.90;97.40
21770;DHT22;11046;49.558;8.674;2023-01-19T13:59:21;2.90;97.50
21770;DHT22;11046;49.558;8.674;2023-01-19T14:02:22;2.90;97.50
21770;DHT22;11046;49.558;8.674;2023-01-19T14:05:36;3.00;97.50
21770;DHT22;11046;49.558;8.674;2023-01-19T14:08:37;3.00;97.40
21770;DHT22;11046;49.558;8.674;2023-01-19T14:11:38;3.00;97.40
21770;DHT22;11046;49.558;8.674;2023-01-19T14:14:41;3.00;97.30
21770;DHT22;11046;49.558;8.674;2023-01-19T14:17:42;3.10;97.40
21770;DHT22;11046;49.558;8.674;2023-01-19T14:24:16;3.00;97.20
21770;DHT22;11046;49.558;8.674;2023-01-19T14:27:22;3.00;97.30
21770;DHT22;11046;49.558;8.674;2023-01-19T14:30:26;2.90;97.30
21770;DHT22;11046;49.558;8.674;2023-01-19T14:33:35;2.90;97.20
21770;DHT22;11046;49.558;8.674;2023-01-19T14:36:39;2.90;97.30
21770;DHT22;11046;49.558;8.674;2023-01-19T14:43:11;2.80;97.40
21770;DHT22;11046;49.558;8.674;2023-01-19T14:46:18;2.80;97.30
21770;DHT22;11046;49.558;8.674;2023-01-19T14:49:38;2.80;97.30
21770;DHT22;11046;49.558;8.674;2023-01-19T14:52:41;2.70;97.30
21770;DHT22;11046;49.558;8.674;2023-01-19T14:58:46;2.70;97.40
21770;DHT22;11046;49.558;8.674;2023-01-19T15:01:47;2.80;97.40
21770;DHT22;11046;49.558;8.674;2023-01-19T15:04:48;2.70;97.40
21770;DHT22;11046;49.558;8.674;2023-01-19T15:07:50;2.70;97.40
21770;DHT22;11046;49.558;8.674;2023-01-19T15:10:52;2.70;97.40
21770;DHT22;11046;49.558;8.674;2023-01-19T15:13:53;2.70;97.40
21770;DHT22;11046;49.558;8.674;2023-01-19T15:16:56;2.70;97.40
21770;DHT22;11046;49.558;8.674;2023-01-19T15:19:57;2.60;97.40
21770;DHT22;11046;49.558;8.674;2023-01-19T15:22:57;2.50;97.50
21770;DHT22;11046;49.558;8.674;2023-01-19T15:25:59;2.50;97.50
21770;DHT22;11046;49.558;8.674;2023-01-19T15:29:00;2.50;97.60
21770;DHT22;11046;49.558;8.674;2023-01-19T15:32:01;2.40;97.60
21770;DHT22;11046;49.558;8.674;2023-01-19T15:35:11;2.40;97.60
21770;DHT22;11046;49.558;8.674;2023-01-19T15:38:11;2.40;97.70
21770;DHT22;11046;49.558;8.674;2023-01-19T15:41:34;2.40;97.80
21770;DHT22;11046;49.558;8.674;2023-01-19T15:44:34;2.40;97.80
21770;DHT22;11046;49.558;8.674;2023-01-19T15:47:34;2.30;97.70
21770;DHT22;11046;49.558;8.674;2023-01-19T15:50:37;2.20;97.90
21770;DHT22;11046;49.558;8.674;2023-01-19T15:53:39;2.20;98.00
21770;DHT22;11046;49.558;8.674;2023-01-19T15:56:40;2.10;98.10
21770;DHT22;11046;49.558;8.674;2023-01-19T15:59:42;2.10;98.10
21770;DHT22;11046;49.558;8.674;2023-01-19T16:02:42;2.00;98.10
21770;DHT22;11046;49.558;8.674;2023-01-19T16:05:43;2.00;98.20
21770;DHT22;11046;49.558;8.674;2023-01-19T16:08:44;1.90;98.20
21770;DHT22;11046;49.558;8.674;2023-01-19T16:11:45;2.00;98.30
21770;DHT22;11046;49.558;8.674;2023-01-19T16:14:45;2.00;98.30
21770;DHT22;11046;49.558;8.674;2023-01-19T16:17:46;2.00;98.30
21770;DHT22;11046;49.558;8.674;2023-01-19T16:20:47;2.00;98.30
21770;DHT22;11046;49.558;8.674;2023-01-19T16:23:47;2.00;98.40
21770;DHT22;11046;49.558;8.674;2023-01-19T16:26:48;1.90;98.40
21770;DHT22;11046;49.558;8.674;2023-01-19T16:29:49;2.00;98.40
21770;DHT22;11046;49.558;8.674;2023-01-19T16:32:50;2.00;98.40
21770;DHT22;11046;49.558;8.674;2023-01-19T16:35:51;1.90;98.40
21770;DHT22;11046;49.558;8.674;2023-01-19T16:38:53;1.90;98.60
21770;DHT22;11046;49.558;8.674;2023-01-19T16:41:53;1.80;98.60
21770;DHT22;11046;49.558;8.674;2023-01-19T16:44:54;1.80;98.70
21770;DHT22;11046;49.558;8.674;2023-01-19T16:47:55;1.80;98.70
21770;DHT22;11046;49.558;8.674;2023-01-19T16:51:03;1.70;98.80
21770;DHT22;11046;49.558;8.674;2023-01-19T16:54:16;1.70;98.90
21770;DHT22;11046;49.558;8.674;2023-01-19T16:57:20;1.70;98.90
21770;DHT22;11046;49.558;8.674;2023-01-19T17:00:24;1.60;98.90
21770;DHT22;11046;49.558;8.674;2023-01-19T17:03:27;1.50;99.10
21770;DHT22;11046;49.558;8.674;2023-01-19T17:06:35;1.50;99.20
21770;DHT22;11046;49.558;8.674;2023-01-19T17:09:37;1.40;99.30
21770;DHT22;11046;49.558;8.674;2023-01-19T17:12:37;1.40;99.40
21770;DHT22;11046;49.558;8.674;2023-01-19T17:15:38;1.30;99.50
21770;DHT22;11046;49.558;8.674;2023-01-19T17:18:39;1.30;99.60
21770;DHT22;11046;49.558;8.674;2023-01-19T17:21:43;1.30;99.60
21770;DHT22;11046;49.558;8.674;2023-01-19T17:24:45;1.40;99.60
21770;DHT22;11046;49.558;8.674;2023-01-19T17:27:46;1.40;99.60
21770;DHT22;11046;49.558;8.674;2023-01-19T17:30:47;1.40;99.60
21770;DHT22;11046;49.558;8.674;2023-01-19T17:33:50;1.30;99.70
21770;DHT22;11046;49.558;8.674;2023-01-19T17:36:51;1.30;99.80
21770;DHT22;11046;49.558;8.674;2023-01-19T17:39:53;1.30;99.80
21770;DHT22;11046;49.558;8.674;2023-01-19T17:42:54;1.30;99.70
21770;DHT22;11046;49.558;8.674;2023-01-19T17:45:55;1.30;99.80
21770;DHT22;11046;49.558;8.674;2023-01-19T17:48:57;1.30;99.80
21770;DHT22;11046;49.558;8.674;2023-01-19T17:51:59;1.30;99.90
21770;DHT22;11046;49.558;8.674;2023-01-19T17:54:59;1.20;99.90
21770;DHT22;11046;49.558;8.674;2023-01-19T17:58:01;1.30;99.90
21770;DHT22;11046;49.558;8.674;2023-01-19T18:01:15;1.30;99.90
21770;DHT22;11046;49.558;8.674;2023-01-19T18:04:15;1.20;99.90
21770;DHT22;11046;49.558;8.674;2023-01-19T18:07:16;1.20;99.90
21770;DHT22;11046;49.558;8.674;2023-01-19T18:10:17;1.10;99.90
21770;DHT22;11046;49.558;8.674;2023-01-19T18:13:17;1.10;99.90
21770;DHT22;11046;49.558;8.674;2023-01-19T18:16:29;1.20;99.90
21770;DHT22;11046;49.558;8.674;2023-01-19T18:19:30;1.20;99.90
21770;DHT22;11046;49.558;8.674;2023-01-19T18:22:30;1.20;99.90
21770;DHT22;11046;49.558;8.674;2023-01-19T18:25:31;1.20;99.90
21770;DHT22;11046;49.558;8.674;2023-01-19T18:28:32;1.10;99.90
21770;DHT22;11046;49.558;8.674;2023-01-19T18:31:33;1.10;99.90
21770;DHT22;11046;49.558;8.674;2023-01-19T18:34:34;1.10;99.90
21770;DHT22;11046;49.558;8.674;2023-01-19T18:37:35;1.20;99.90
21770;DHT22;11046;49.558;8.674;2023-01-19T18:40:35;1.20;99.90
21770;DHT22;11046;49.558;8.674;2023-01-19T18:43:36;1.30;99.90
21770;DHT22;11046;49.558;8.674;2023-01-19T18:46:37;1.20;99.90
21770;DHT22;11046;49.558;8.674;2023-01-19T18:49:38;1.20;99.90
21770;DHT22;11046;49.558;8.674;2023-01-19T18:52:39;1.20;99.90
21770;DHT22;11046;49.558;8.674;2023-01-19T18:55:48;1.10;99.90
21770;DHT22;11046;49.558;8.674;2023-01-19T18:58:49;1.10;99.90
21770;DHT22;11046;49.558;8.674;2023-01-19T19:01:52;1.20;99.90
21770;DHT22;11046;49.558;8.674;2023-01-19T19:04:53;1.20;99.90
21770;DHT22;11046;49.558;8.674;2023-01-19T19:07:55;1.30;99.90
21770;DHT22;11046;49.558;8.674;2023-01-19T19:10:56;1.20;99.90
21770;DHT22;11046;49.558;8.674;2023-01-19T19:13:59;1.20;99.90
21770;DHT22;11046;49.558;8.674;2023-01-19T19:17:00;1.30;99.90
21770;DHT22;11046;49.558;8.674;2023-01-19T19:20:00;1.30;99.90
21770;DHT22;11046;49.558;8.674;2023-01-19T19:23:02;1.30;99.90
21770;DHT22;11046;49.558;8.674;2023-01-19T19:26:05;1.30;99.90
21770;DHT22;11046;49.558;8.674;2023-01-19T19:29:06;1.20;99.90
21770;DHT22;11046;49.558;8.674;2023-01-19T19:32:06;1.20;99.90
21770;DHT22;11046;49.558;8.674;2023-01-19T19:35:08;1.20;99.90
21770;DHT22;11046;49.558;8.674;2023-01-19T19:38:08;1.20;99.90
21770;DHT22;11046;49.558;8.674;2023-01-19T19:41:15;1.30;99.90
21770;DHT22;11046;49.558;8.674;2023-01-19T19:44:16;1.30;99.90
21770;DHT22;11046;49.558;8.674;2023-01-19T19:47:17;1.30;99.90
21770;DHT22;11046;49.558;8.674;2023-01-19T19:50:18;1.30;99.90
21770;DHT22;11046;49.558;8.674;2023-01-19T19:53:19;1.30;99.90
21770;DHT22;11046;49.558;8.674;2023-01-19T19:56:22;1.30;99.90
21770;DHT22;11046;49.558;8.674;2023-01-19T19:59:23;1.30;99.90
21770;DHT22;11046;49.558;8.674;2023-01-19T20:02:23;1.30;99.90
21770;DHT22;11046;49.558;8.674;2023-01-19T20:05:24;1.30;99.90
21770;DHT22;11046;49.558;8.674;2023-01-19T20:08:25;1.30;99.90
21770;DHT22;11046;49.558;8.674;2023-01-19T20:11:26;1.20;99.90
21770;DHT22;11046;49.558;8.674;2023-01-19T20:14:27;1.20;99.90
21770;DHT22;11046;49.558;8.674;2023-01-19T20:17:28;1.30;99.90
21770;DHT22;11046;49.558;8.674;2023-01-19T20:20:28;1.20;99.90
21770;DHT22;11046;49.558;8.674;2023-01-19T20:23:29;1.20;99.90